createdAt,value
2023-03-17T00:00:29.387Z,70.94
2023-03-17T00:01:29.029Z,71.04
2023-03-17T00:02:29.127Z,71.98
2023-03-17T00:03:29.023Z,71.88
2023-03-17T00:04:29.003Z,71.98
2023-03-17T00:05:29.986Z,71.36
2023-03-17T00:06:28.990Z,72.39
2023-03-17T00:07:28.989Z,71.77
2023-03-17T00:08:28.973Z,72.19
2023-03-17T00:09:28.972Z,72.19
2023-03-17T00:10:29.263Z,71.77
2023-03-17T00:11:28.933Z,73.05
2023-03-17T00:12:28.936Z,72.84
2023-03-17T00:13:28.916Z,73.15
2023-03-17T00:14:28.911Z,72.74
2023-03-17T00:15:28.897Z,72.94
2023-03-17T00:16:28.920Z,72.60
2023-03-17T00:17:28.893Z,72.42
2023-03-17T00:18:28.872Z,72.42
2023-03-17T00:19:28.884Z,71.77
2023-03-17T00:20:29.125Z,72.08
2023-03-17T00:21:28.852Z,72.71
2023-03-17T00:22:28.856Z,72.94
2023-03-17T00:23:28.840Z,72.74
2023-03-17T00:24:28.833Z,72.01
2023-03-17T00:25:28.813Z,72.11
2023-03-17T00:26:28.809Z,72.42
2023-03-17T00:27:28.803Z,72.42
2023-03-17T00:28:28.780Z,72.08
2023-03-17T00:29:28.845Z,72.11
2023-03-17T00:30:29.189Z,72.01
2023-03-17T00:31:28.816Z,71.67
2023-03-17T00:32:28.787Z,72.81
2023-03-17T00:33:28.743Z,72.08
2023-03-17T00:34:28.734Z,72.19
2023-03-17T00:35:28.802Z,71.98
2023-03-17T00:36:28.717Z,71.98
2023-03-17T00:37:28.714Z,71.25
2023-03-17T00:38:28.697Z,71.84
2023-03-17T00:39:28.712Z,71.46
2023-03-17T00:40:29.084Z,71.77
2023-03-17T00:41:28.674Z,71.77
2023-03-17T00:42:28.669Z,72.29
2023-03-17T00:43:30.606Z,72.50
2023-03-17T00:44:29.643Z,71.98
2023-03-17T00:45:28.638Z,72.08
2023-03-17T00:46:28.818Z,72.29
2023-03-17T00:47:28.630Z,72.08
2023-03-17T00:48:28.610Z,72.29
2023-03-17T00:49:28.599Z,72.39
2023-03-17T00:50:28.905Z,72.01
2023-03-17T00:51:28.580Z,72.08
2023-03-17T00:52:28.592Z,72.08
2023-03-17T00:53:28.561Z,72.11
2023-03-17T00:54:28.567Z,72.81
2023-03-17T00:55:28.547Z,72.50
2023-03-17T00:56:28.539Z,72.91
2023-03-17T00:57:28.542Z,72.94
2023-03-17T00:58:28.519Z,73.36
2023-03-17T00:59:28.524Z,73.77
2023-03-17T01:00:28.761Z,73.77
2023-03-17T01:01:28.498Z,73.67
2023-03-17T01:02:28.608Z,74.05
2023-03-17T01:03:28.485Z,73.57
2023-03-17T01:04:28.468Z,73.46
2023-03-17T01:05:28.461Z,73.88
2023-03-17T01:06:28.446Z,73.98
2023-03-17T01:07:28.451Z,73.88
2023-03-17T01:08:28.433Z,73.36
2023-03-17T01:09:28.430Z,73.46
2023-03-17T01:10:29.706Z,72.94
2023-03-17T01:11:28.401Z,72.94
2023-03-17T01:12:28.407Z,72.74
2023-03-17T01:13:28.407Z,72.39
2023-03-17T01:14:28.396Z,72.91
2023-03-17T01:15:28.369Z,72.91
2023-03-17T01:16:28.459Z,72.71
2023-03-17T01:17:28.372Z,72.84
2023-03-17T01:18:28.367Z,72.94
2023-03-17T01:19:28.336Z,72.39
2023-03-17T01:20:28.677Z,72.71
2023-03-17T01:21:28.314Z,72.71
2023-03-17T01:22:28.318Z,73.05
2023-03-17T01:23:28.298Z,72.63
2023-03-17T01:24:28.283Z,73.01
2023-03-17T01:25:28.293Z,72.91
2023-03-17T01:26:28.271Z,73.11
2023-03-17T01:27:28.278Z,73.43
2023-03-17T01:28:28.325Z,73.53
2023-03-17T01:29:28.245Z,73.98
2023-03-17T01:30:28.667Z,73.67
2023-03-17T01:31:28.244Z,73.88
2023-03-17T01:32:28.238Z,73.67
2023-03-17T01:33:28.222Z,73.77
2023-03-17T01:34:28.219Z,73.98
2023-03-17T01:35:28.196Z,74.08
2023-03-17T01:36:28.204Z,74.19
2023-03-17T01:37:28.173Z,73.98
2023-03-17T01:38:28.179Z,74.08
2023-03-17T01:39:28.163Z,74.08
2023-03-17T01:40:28.528Z,74.19
2023-03-17T01:41:28.150Z,74.40
2023-03-17T01:42:28.137Z,74.40
2023-03-17T01:43:28.145Z,74.50
2023-03-17T01:44:28.126Z,73.98
2023-03-17T01:45:28.124Z,74.15
2023-03-17T01:46:28.110Z,74.08
2023-03-17T01:47:28.097Z,73.53
2023-03-17T01:48:28.100Z,73.88
2023-03-17T01:49:28.083Z,74.19
2023-03-17T01:50:28.337Z,74.26
2023-03-17T01:51:28.063Z,73.67
2023-03-17T01:52:28.055Z,73.98
2023-03-17T01:53:28.049Z,73.46
2023-03-17T01:54:28.042Z,73.98
2023-03-17T01:55:28.030Z,73.88
2023-03-17T01:56:28.021Z,73.84
2023-03-17T01:57:28.008Z,73.57
2023-03-17T01:58:28.021Z,73.94
2023-03-17T01:59:28.000Z,74.15
2023-03-17T02:00:28.472Z,73.22
2023-03-17T02:01:28.020Z,73.53
2023-03-17T02:02:27.970Z,73.53
2023-03-17T02:03:28.147Z,73.94
2023-03-17T02:04:27.985Z,73.60
2023-03-17T02:05:27.952Z,73.63
2023-03-17T02:06:27.941Z,73.84
2023-03-17T02:07:27.938Z,73.74
2023-03-17T02:08:27.942Z,73.84
2023-03-17T02:09:27.991Z,73.60
2023-03-17T02:10:28.125Z,73.50
2023-03-17T02:11:27.895Z,74.12
2023-03-17T02:12:27.891Z,73.71
2023-03-17T02:13:27.889Z,73.50
2023-03-17T02:14:27.870Z,73.53
2023-03-17T02:15:27.860Z,73.19
2023-03-17T02:16:27.908Z,73.29
2023-03-17T02:17:27.843Z,73.19
2023-03-17T02:18:27.844Z,72.98
2023-03-17T02:19:27.849Z,72.36
2023-03-17T02:20:28.209Z,72.67
2023-03-17T02:21:27.803Z,72.56
2023-03-17T02:22:27.801Z,72.77
2023-03-17T02:23:27.801Z,71.73
2023-03-17T02:24:27.779Z,71.53
2023-03-17T02:25:27.780Z,71.94
2023-03-17T02:26:27.766Z,73.60
2023-03-17T02:27:27.752Z,73.08
2023-03-17T02:28:27.773Z,73.39
2023-03-17T02:29:27.803Z,73.39
2023-03-17T02:30:27.865Z,72.67
2023-03-17T02:31:27.720Z,72.36
2023-03-17T02:32:27.766Z,72.56
2023-03-17T02:33:27.724Z,72.46
2023-03-17T02:34:27.704Z,72.25
2023-03-17T02:35:27.691Z,71.84
2023-03-17T02:36:27.715Z,72.05
2023-03-17T02:37:27.671Z,72.67
2023-03-17T02:38:27.676Z,72.85
2023-03-17T02:39:27.677Z,72.05
2023-03-17T02:40:27.644Z,72.67
2023-03-17T02:41:27.641Z,72.05
2023-03-17T02:42:27.632Z,71.43
2023-03-17T02:43:27.629Z,72.05
2023-03-17T02:44:27.617Z,72.46
2023-03-17T02:45:27.618Z,71.84
2023-03-17T02:46:27.739Z,72.56
2023-03-17T02:47:27.584Z,72.36
2023-03-17T02:48:27.590Z,72.05
2023-03-17T02:49:27.569Z,72.77
2023-03-17T02:50:27.957Z,71.63
2023-03-17T02:51:27.585Z,71.63
2023-03-17T02:52:27.547Z,72.25
2023-03-17T02:53:27.552Z,72.15
2023-03-17T02:54:27.531Z,71.88
2023-03-17T02:55:27.521Z,72.25
2023-03-17T02:56:27.512Z,72.88
2023-03-17T02:57:27.505Z,72.46
2023-03-17T02:58:27.535Z,71.94
2023-03-17T02:59:27.521Z,71.84
2023-03-17T03:00:27.680Z,72.05
2023-03-17T03:01:27.523Z,72.05
2023-03-17T03:02:27.517Z,72.15
2023-03-17T03:03:27.495Z,72.29
2023-03-17T03:04:27.450Z,72.19
2023-03-17T03:05:27.442Z,72.39
2023-03-17T03:06:27.442Z,72.71
2023-03-17T03:07:27.426Z,72.50
2023-03-17T03:08:27.424Z,73.01
2023-03-17T03:09:27.408Z,72.91
2023-03-17T03:10:27.446Z,72.50
2023-03-17T03:11:27.388Z,72.91
2023-03-17T03:12:27.378Z,72.91
2023-03-17T03:13:27.381Z,73.25
2023-03-17T03:14:27.358Z,73.46
2023-03-17T03:15:27.354Z,73.25
2023-03-17T03:16:27.354Z,73.15
2023-03-17T03:17:27.335Z,72.84
2023-03-17T03:18:27.336Z,73.01
2023-03-17T03:19:27.313Z,73.53
2023-03-17T03:20:27.553Z,73.22
2023-03-17T03:21:27.300Z,73.43
2023-03-17T03:22:27.294Z,73.11
2023-03-17T03:23:27.292Z,73.25
2023-03-17T03:24:27.273Z,72.94
2023-03-17T03:25:27.283Z,73.77
2023-03-17T03:26:27.258Z,73.98
2023-03-17T03:27:27.253Z,73.77
2023-03-17T03:28:27.250Z,73.46
2023-03-17T03:29:27.234Z,73.57
2023-03-17T03:30:27.222Z,73.63
2023-03-17T03:31:27.379Z,73.05
2023-03-17T03:32:27.332Z,73.57
2023-03-17T03:33:27.217Z,74.19
2023-03-17T03:34:27.208Z,73.94
2023-03-17T03:35:27.206Z,74.05
2023-03-17T03:36:27.223Z,73.63
2023-03-17T03:37:27.221Z,73.84
2023-03-17T03:38:27.215Z,73.74
2023-03-17T03:39:27.175Z,73.43
2023-03-17T03:40:27.231Z,73.43
2023-03-17T03:41:27.125Z,73.53
2023-03-17T03:42:27.115Z,72.60
2023-03-17T03:43:27.114Z,73.22
2023-03-17T03:44:27.097Z,72.91
2023-03-17T03:45:27.088Z,72.71
2023-03-17T03:46:27.120Z,72.71
2023-03-17T03:47:27.064Z,73.01
2023-03-17T03:48:27.063Z,71.98
2023-03-17T03:49:27.057Z,71.98
2023-03-17T03:50:27.045Z,71.98
2023-03-17T03:51:27.046Z,72.19
2023-03-17T03:52:27.030Z,72.08
2023-03-17T03:53:27.036Z,71.98
2023-03-17T03:54:27.017Z,71.56
2023-03-17T03:55:27.998Z,71.77
2023-03-17T03:56:26.993Z,71.84
2023-03-17T03:57:27.003Z,71.43
2023-03-17T03:58:27.007Z,71.43
2023-03-17T03:59:26.972Z,71.63
2023-03-17T04:00:26.967Z,72.56
2023-03-17T04:01:26.961Z,72.29
2023-03-17T04:02:26.985Z,72.05
2023-03-17T04:03:26.935Z,72.05
2023-03-17T04:04:26.953Z,72.25
2023-03-17T04:05:26.912Z,72.71
2023-03-17T04:06:26.916Z,72.60
2023-03-17T04:07:26.897Z,72.91
2023-03-17T04:08:26.886Z,73.01
2023-03-17T04:09:26.905Z,72.39
2023-03-17T04:10:26.870Z,73.32
2023-03-17T04:11:26.880Z,72.50
2023-03-17T04:12:26.875Z,72.39
2023-03-17T04:13:26.851Z,72.39
2023-03-17T04:14:26.856Z,72.74
2023-03-17T04:15:26.836Z,72.63
2023-03-17T04:16:26.872Z,73.25
2023-03-17T04:17:26.818Z,73.57
2023-03-17T04:18:26.806Z,73.46
2023-03-17T04:19:26.824Z,73.36
2023-03-17T04:20:26.785Z,73.77
2023-03-17T04:21:26.782Z,73.88
2023-03-17T04:22:26.771Z,74.08
2023-03-17T04:23:26.765Z,74.11
2023-03-17T04:24:26.775Z,74.01
2023-03-17T04:25:26.748Z,73.80
2023-03-17T04:26:26.739Z,74.08
2023-03-17T04:27:26.734Z,73.67
2023-03-17T04:28:26.723Z,74.22
2023-03-17T04:29:26.725Z,74.01
2023-03-17T04:30:26.703Z,73.80
2023-03-17T04:31:26.772Z,74.11
2023-03-17T04:32:27.271Z,74.22
2023-03-17T04:33:27.691Z,73.49
2023-03-17T04:34:26.687Z,74.01
2023-03-17T04:35:26.662Z,74.22
2023-03-17T04:36:26.664Z,73.91
2023-03-17T04:37:26.656Z,74.01
2023-03-17T04:38:26.641Z,73.88
2023-03-17T04:39:26.650Z,74.01
2023-03-17T04:40:26.629Z,74.11
2023-03-17T04:41:26.600Z,74.43
2023-03-17T04:42:27.604Z,74.11
2023-03-17T04:43:26.609Z,74.43
2023-03-17T04:44:26.598Z,74.36
2023-03-17T04:45:26.598Z,74.32
2023-03-17T04:46:26.573Z,74.22
2023-03-17T04:47:26.561Z,74.32
2023-03-17T04:48:26.556Z,74.01
2023-03-17T04:49:26.556Z,73.80
2023-03-17T04:50:26.545Z,74.05
2023-03-17T04:51:26.530Z,73.74
2023-03-17T04:52:26.521Z,73.94
2023-03-17T04:53:26.548Z,74.77
2023-03-17T04:54:26.511Z,74.53
2023-03-17T04:55:26.493Z,74.11
2023-03-17T04:56:26.479Z,74.32
2023-03-17T04:57:26.487Z,74.26
2023-03-17T04:58:30.868Z,74.05
2023-03-17T04:59:27.537Z,74.32
2023-03-17T05:00:58.425Z,74.32
2023-03-17T05:01:26.481Z,74.01
2023-03-17T05:02:26.514Z,74.32
2023-03-17T05:03:27.931Z,74.53
2023-03-17T05:04:31.668Z,74.22
2023-03-17T05:05:27.409Z,74.01
2023-03-17T05:06:27.392Z,74.01
2023-03-17T05:07:26.389Z,74.43
2023-03-17T05:08:26.393Z,74.36
2023-03-17T05:09:26.477Z,73.94
2023-03-17T05:10:26.362Z,74.11
2023-03-17T05:11:26.356Z,73.80
2023-03-17T05:12:26.346Z,74.43
2023-03-17T05:13:26.360Z,74.22
2023-03-17T05:14:26.406Z,74.11
2023-03-17T05:15:26.321Z,74.15
2023-03-17T05:16:26.331Z,74.11
2023-03-17T05:17:26.322Z,73.91
2023-03-17T05:18:26.301Z,73.60
2023-03-17T05:19:26.300Z,73.80
2023-03-17T05:20:26.281Z,73.49
2023-03-17T05:21:26.284Z,73.63
2023-03-17T05:22:26.258Z,73.84
2023-03-17T05:23:26.263Z,74.15
2023-03-17T05:24:26.258Z,74.05
2023-03-17T05:25:26.285Z,74.46
2023-03-17T05:26:26.232Z,73.84
2023-03-17T05:27:26.219Z,73.84
2023-03-17T05:28:26.215Z,74.15
2023-03-17T05:29:26.213Z,74.36
2023-03-17T05:30:26.197Z,74.57
2023-03-17T05:31:26.243Z,74.77
2023-03-17T05:32:26.221Z,74.67
2023-03-17T05:33:26.170Z,74.77
2023-03-17T05:34:26.175Z,74.88
2023-03-17T05:35:26.152Z,74.36
2023-03-17T05:36:26.180Z,74.36
2023-03-17T05:37:26.135Z,74.81
2023-03-17T05:38:26.128Z,74.67
2023-03-17T05:39:26.133Z,75.02
2023-03-17T05:40:26.112Z,74.88
2023-03-17T05:41:26.107Z,75.29
2023-03-17T05:42:26.091Z,75.29
2023-03-17T05:43:26.084Z,75.43
2023-03-17T05:44:26.089Z,75.23
2023-03-17T05:45:26.083Z,75.60
2023-03-17T05:46:26.098Z,75.29
2023-03-17T05:47:26.059Z,75.19
2023-03-17T05:48:26.046Z,75.29
2023-03-17T05:49:26.045Z,75.29
2023-03-17T05:50:26.034Z,74.98
2023-03-17T05:51:26.019Z,75.09
2023-03-17T05:52:26.017Z,74.98
2023-03-17T05:53:26.002Z,75.09
2023-03-17T05:54:26.000Z,75.50
2023-03-17T05:55:25.980Z,75.40
2023-03-17T05:56:25.982Z,75.19
2023-03-17T05:57:25.966Z,75.29
2023-03-17T05:58:25.972Z,75.29
2023-03-17T05:59:25.975Z,74.88
2023-03-17T06:00:25.941Z,74.67
2023-03-17T06:01:25.935Z,74.88
2023-03-17T06:02:25.931Z,74.88
2023-03-17T06:03:25.925Z,74.57
2023-03-17T06:04:25.919Z,73.94
2023-03-17T06:05:25.905Z,74.05
2023-03-17T06:06:25.918Z,74.15
2023-03-17T06:07:25.885Z,74.15
2023-03-17T06:08:25.878Z,74.11
2023-03-17T06:09:25.879Z,74.05
2023-03-17T06:10:25.867Z,74.63
2023-03-17T06:11:25.866Z,74.01
2023-03-17T06:12:25.869Z,73.91
2023-03-17T06:13:25.849Z,74.08
2023-03-17T06:14:27.142Z,74.01
2023-03-17T06:15:26.845Z,74.08
2023-03-17T06:16:26.810Z,74.19
2023-03-17T06:17:25.804Z,74.08
2023-03-17T06:18:25.818Z,74.08
2023-03-17T06:19:25.793Z,73.57
2023-03-17T06:20:25.815Z,72.74
2023-03-17T06:21:25.767Z,72.74
2023-03-17T06:22:25.789Z,72.74
2023-03-17T06:23:25.752Z,72.84
2023-03-17T06:24:25.746Z,73.01
2023-03-17T06:25:26.734Z,72.81
2023-03-17T06:26:25.723Z,72.91
2023-03-17T06:27:25.722Z,72.71
2023-03-17T06:28:25.709Z,72.60
2023-03-17T06:29:25.714Z,73.01
2023-03-17T06:30:25.708Z,72.60
2023-03-17T06:31:25.717Z,73.71
2023-03-17T06:32:25.791Z,73.29
2023-03-17T06:33:25.662Z,72.88
2023-03-17T06:34:25.664Z,73.19
2023-03-17T06:35:25.723Z,72.77
2023-03-17T06:36:25.817Z,73.29
2023-03-17T06:37:25.645Z,72.05
2023-03-17T06:38:25.634Z,71.53
2023-03-17T06:39:25.641Z,71.73
2023-03-17T06:40:25.602Z,71.43
2023-03-17T06:41:25.662Z,71.63
2023-03-17T06:42:25.587Z,71.53
2023-03-17T06:43:25.586Z,71.94
2023-03-17T06:44:25.594Z,71.94
2023-03-17T06:45:25.568Z,72.05
2023-03-17T06:46:25.603Z,72.15
2023-03-17T06:47:26.104Z,72.02
2023-03-17T06:48:26.533Z,71.91
2023-03-17T06:49:25.529Z,72.12
2023-03-17T06:50:25.523Z,71.91
2023-03-17T06:51:25.507Z,70.87
2023-03-17T06:52:25.504Z,71.08
2023-03-17T06:53:25.488Z,70.87
2023-03-17T06:54:25.527Z,71.57
2023-03-17T06:55:25.493Z,71.19
2023-03-17T06:56:30.110Z,70.98
2023-03-17T06:57:27.466Z,71.57
2023-03-17T06:58:25.449Z,72.60
2023-03-17T06:59:25.437Z,72.29
2023-03-17T07:00:25.455Z,72.47
2023-03-17T07:01:25.494Z,71.53
2023-03-17T07:02:25.417Z,71.53
2023-03-17T07:03:25.418Z,71.53
2023-03-17T07:04:25.473Z,71.64
2023-03-17T07:05:25.393Z,71.64
2023-03-17T07:06:25.382Z,70.19
2023-03-17T07:07:25.370Z,70.92
2023-03-17T07:08:25.366Z,70.71
2023-03-17T07:09:25.367Z,69.98
2023-03-17T07:10:25.347Z,69.95
2023-03-17T07:11:25.338Z,69.37
2023-03-17T07:12:25.815Z,69.64
2023-03-17T07:13:25.325Z,69.54
2023-03-17T07:14:25.325Z,69.30
2023-03-17T07:15:25.308Z,69.09
2023-03-17T07:16:25.344Z,69.17
2023-03-17T07:17:25.562Z,69.34
2023-03-17T07:18:25.310Z,68.51
2023-03-17T07:19:25.587Z,68.00
2023-03-17T07:20:25.272Z,67.79
2023-03-17T07:21:25.253Z,67.48
2023-03-17T07:22:25.252Z,67.07
2023-03-17T07:23:25.231Z,67.76
2023-03-17T07:24:25.213Z,67.38
2023-03-17T07:25:25.214Z,66.94
2023-03-17T07:26:25.214Z,66.42
2023-03-17T07:27:25.190Z,66.28
2023-03-17T07:28:25.206Z,65.98
2023-03-17T07:29:25.180Z,66.60
2023-03-17T07:30:25.170Z,66.49
2023-03-17T07:31:25.207Z,66.28
2023-03-17T07:32:25.141Z,67.21
2023-03-17T07:33:25.128Z,66.80
2023-03-17T07:34:25.133Z,66.94
2023-03-17T07:35:25.176Z,66.60
2023-03-17T07:36:25.116Z,66.08
2023-03-17T07:37:25.084Z,67.58
2023-03-17T07:38:25.101Z,68.00
2023-03-17T07:39:25.080Z,68.13
2023-03-17T07:40:25.099Z,68.51
2023-03-17T07:41:25.055Z,68.13
2023-03-17T07:42:25.049Z,68.34
2023-03-17T07:43:25.031Z,68.44
2023-03-17T07:44:25.045Z,69.09
2023-03-17T07:45:25.173Z,69.37
2023-03-17T07:46:25.045Z,68.44
2023-03-17T07:47:24.990Z,67.93
2023-03-17T07:48:24.982Z,68.59
2023-03-17T07:49:39.978Z,68.69
2023-03-17T07:50:26.997Z,67.21
2023-03-17T07:51:24.957Z,67.29
2023-03-17T07:52:24.957Z,66.60
2023-03-17T07:53:24.948Z,66.91
2023-03-17T07:54:24.939Z,65.95
2023-03-17T07:55:24.930Z,66.84
2023-03-17T07:56:24.921Z,65.19
2023-03-17T07:57:24.974Z,66.12
2023-03-17T07:58:24.886Z,66.46
2023-03-17T07:59:24.895Z,66.84
2023-03-17T08:00:25.913Z,65.99
2023-03-17T08:01:24.863Z,65.16
2023-03-17T08:02:24.944Z,65.55
2023-03-17T08:03:24.873Z,65.03
2023-03-17T08:04:24.844Z,65.03
2023-03-17T08:05:24.833Z,65.68
2023-03-17T08:06:24.810Z,66.84
2023-03-17T08:07:24.815Z,67.66
2023-03-17T08:08:24.791Z,66.81
2023-03-17T08:09:24.893Z,67.53
2023-03-17T08:10:24.794Z,67.84
2023-03-17T08:11:24.761Z,67.36
2023-03-17T08:12:24.758Z,68.01
2023-03-17T08:13:24.761Z,67.80
2023-03-17T08:14:24.748Z,69.14
2023-03-17T08:15:24.795Z,68.21
2023-03-17T08:16:24.771Z,67.49
2023-03-17T08:17:24.720Z,68.17
2023-03-17T08:18:24.703Z,69.20
2023-03-17T08:19:24.694Z,69.62
2023-03-17T08:20:24.698Z,70.13
2023-03-17T08:21:24.822Z,71.26
2023-03-17T08:22:24.667Z,69.89
2023-03-17T08:23:24.656Z,69.86
2023-03-17T08:24:24.640Z,70.68
2023-03-17T08:25:24.646Z,69.65
2023-03-17T08:26:24.683Z,70.14
2023-03-17T08:27:24.616Z,69.38
2023-03-17T08:28:24.601Z,69.38
2023-03-17T08:29:24.596Z,67.40
2023-03-17T08:30:24.599Z,67.53
2023-03-17T08:31:24.656Z,68.12
2023-03-17T08:32:24.564Z,68.43
2023-03-17T08:33:24.572Z,67.22
2023-03-17T08:34:24.552Z,67.43
2023-03-17T08:35:24.589Z,68.39
2023-03-17T08:36:24.541Z,68.29
2023-03-17T08:37:24.519Z,69.83
2023-03-17T08:38:24.510Z,69.49
2023-03-17T08:39:24.498Z,67.84
2023-03-17T08:40:24.523Z,68.43
2023-03-17T08:41:24.480Z,67.81
2023-03-17T08:42:24.504Z,68.35
2023-03-17T08:43:24.469Z,68.22
2023-03-17T08:44:24.455Z,68.12
2023-03-17T08:45:24.459Z,67.88
2023-03-17T08:46:24.503Z,67.36
2023-03-17T08:47:24.427Z,67.65
2023-03-17T08:48:24.420Z,67.54
2023-03-17T08:49:24.405Z,66.79
2023-03-17T08:50:24.409Z,65.97
2023-03-17T08:51:24.709Z,65.73
2023-03-17T08:52:25.377Z,64.78
2023-03-17T08:53:24.386Z,64.47
2023-03-17T08:54:24.358Z,65.01
2023-03-17T08:55:24.361Z,64.57
2023-03-17T08:56:24.340Z,64.47
2023-03-17T08:57:24.329Z,65.01
2023-03-17T08:58:24.323Z,64.47
2023-03-17T08:59:24.314Z,64.95
2023-03-17T09:00:24.317Z,64.51
2023-03-17T09:01:24.366Z,64.07
2023-03-17T09:02:24.335Z,63.02
2023-03-17T09:03:24.277Z,62.19
2023-03-17T09:04:24.261Z,61.69
2023-03-17T09:05:24.265Z,62.07
2023-03-17T09:06:24.278Z,61.32
2023-03-17T09:07:24.231Z,61.11
2023-03-17T09:08:24.227Z,61.11
2023-03-17T09:09:24.219Z,61.01
2023-03-17T09:10:24.214Z,60.10
2023-03-17T09:11:24.210Z,60.71
2023-03-17T09:12:24.204Z,60.81
2023-03-17T09:13:24.181Z,61.43
2023-03-17T09:14:24.162Z,60.60
2023-03-17T09:15:24.166Z,61.52
2023-03-17T09:16:24.428Z,62.85
2023-03-17T09:17:24.140Z,60.50
2023-03-17T09:18:24.157Z,61.96
2023-03-17T09:19:24.116Z,61.25
2023-03-17T09:20:24.113Z,59.30
2023-03-17T09:21:24.094Z,60.74
2023-03-17T09:22:24.101Z,59.50
2023-03-17T09:23:24.072Z,61.04
2023-03-17T09:24:24.063Z,60.81
2023-03-17T09:25:24.071Z,59.48
2023-03-17T09:26:24.042Z,59.04
2023-03-17T09:27:24.034Z,59.14
2023-03-17T09:28:24.115Z,59.94
2023-03-17T09:29:24.021Z,59.12
2023-03-17T09:30:24.058Z,59.66
2023-03-17T09:31:24.058Z,58.94
2023-03-17T09:32:23.982Z,58.12
2023-03-17T09:33:23.969Z,59.55
2023-03-17T09:34:24.000Z,58.84
2023-03-17T09:35:23.967Z,57.71
2023-03-17T09:36:23.951Z,58.53
2023-03-17T09:37:23.937Z,58.43
2023-03-17T09:38:23.923Z,57.58
2023-03-17T09:39:23.925Z,56.87
2023-03-17T09:40:23.926Z,57.61
2023-03-17T09:41:23.933Z,57.30
2023-03-17T09:42:23.877Z,57.58
2023-03-17T09:43:23.880Z,57.28
2023-03-17T09:44:23.876Z,57.07
2023-03-17T09:45:23.848Z,58.68
2023-03-17T09:46:23.877Z,57.07
2023-03-17T09:47:23.830Z,57.25
2023-03-17T09:48:23.815Z,57.66
2023-03-17T09:49:23.817Z,58.68
2023-03-17T09:50:23.860Z,56.92
2023-03-17T09:51:24.794Z,56.94
2023-03-17T09:52:23.782Z,57.63
2023-03-17T09:53:23.775Z,57.02
2023-03-17T09:54:23.773Z,56.92
2023-03-17T09:55:23.750Z,57.12
2023-03-17T09:56:23.779Z,57.32
2023-03-17T09:57:23.746Z,57.22
2023-03-17T09:58:23.725Z,57.12
2023-03-17T09:59:23.718Z,57.43
2023-03-17T10:00:23.706Z,57.02
2023-03-17T10:01:23.759Z,57.32
2023-03-17T10:02:23.706Z,56.99
2023-03-17T10:03:23.675Z,56.40
2023-03-17T10:04:23.659Z,56.68
2023-03-17T10:05:23.695Z,56.99
2023-03-17T10:06:23.657Z,56.99
2023-03-17T10:07:23.631Z,57.09
2023-03-17T10:08:31.336Z,56.58
2023-03-17T10:09:27.042Z,57.17
2023-03-17T10:10:24.597Z,56.96
2023-03-17T10:11:23.594Z,57.68
2023-03-17T10:12:23.582Z,57.96
2023-03-17T10:13:23.576Z,57.14
2023-03-17T10:14:23.575Z,56.91
2023-03-17T10:15:23.550Z,56.23
2023-03-17T10:16:23.573Z,56.43
2023-03-17T10:17:23.529Z,54.90
2023-03-17T10:18:23.523Z,55.20
2023-03-17T10:19:23.511Z,54.28
2023-03-17T10:20:23.509Z,54.69
2023-03-17T10:21:23.496Z,55.20
2023-03-17T10:22:23.477Z,56.12
2023-03-17T10:23:23.485Z,55.89
2023-03-17T10:24:23.460Z,56.60
2023-03-17T10:25:23.443Z,55.69
2023-03-17T10:26:23.449Z,54.77
2023-03-17T10:27:23.436Z,54.67
2023-03-17T10:28:23.464Z,54.36
2023-03-17T10:29:23.407Z,53.85
2023-03-17T10:30:23.400Z,54.97
2023-03-17T10:31:23.646Z,55.48
2023-03-17T10:32:23.379Z,54.97
2023-03-17T10:33:23.377Z,54.64
2023-03-17T10:34:23.357Z,53.42
2023-03-17T10:35:23.346Z,54.24
2023-03-17T10:36:23.362Z,55.26
2023-03-17T10:37:23.321Z,54.64
2023-03-17T10:38:23.334Z,54.82
2023-03-17T10:39:23.305Z,55.84
2023-03-17T10:40:23.306Z,54.72
2023-03-17T10:41:23.310Z,55.02
2023-03-17T10:42:23.279Z,54.69
2023-03-17T10:43:23.351Z,54.49
2023-03-17T10:44:23.253Z,54.28
2023-03-17T10:45:23.241Z,55.51
2023-03-17T10:46:23.382Z,54.87
2023-03-17T10:47:23.221Z,53.96
2023-03-17T10:48:23.203Z,54.33
2023-03-17T10:49:23.223Z,55.38
2023-03-17T10:50:23.217Z,53.85
2023-03-17T10:51:23.194Z,53.34
2023-03-17T10:52:23.179Z,52.81
2023-03-17T10:53:23.201Z,53.65
2023-03-17T10:54:23.156Z,54.03
2023-03-17T10:55:23.153Z,54.31
2023-03-17T10:56:23.141Z,53.09
2023-03-17T10:57:23.148Z,52.78
2023-03-17T10:58:23.118Z,53.19
2023-03-17T10:59:23.115Z,53.09
2023-03-17T11:00:23.105Z,52.78
2023-03-17T11:01:55.000Z,52.78
2023-03-17T11:02:23.073Z,52.78
2023-03-17T11:03:23.147Z,50.93
2023-03-17T11:04:23.103Z,51.46
2023-03-17T11:05:23.063Z,51.26
2023-03-17T11:06:23.104Z,51.84
2023-03-17T11:07:23.032Z,51.36
2023-03-17T11:08:23.191Z,53.27
2023-03-17T11:09:22.995Z,52.53
2023-03-17T11:10:23.210Z,51.23
2023-03-17T11:11:22.991Z,51.95
2023-03-17T11:12:23.016Z,52.73
2023-03-17T11:13:23.108Z,51.21
2023-03-17T11:14:23.076Z,50.32
2023-03-17T11:15:22.959Z,50.83
2023-03-17T11:16:22.958Z,50.90
2023-03-17T11:17:22.922Z,52.45
2023-03-17T11:18:22.910Z,51.95
2023-03-17T11:19:22.890Z,51.26
2023-03-17T11:20:22.911Z,52.66
2023-03-17T11:21:22.879Z,52.66
2023-03-17T11:22:22.868Z,52.53
2023-03-17T11:23:22.851Z,52.61
2023-03-17T11:24:22.847Z,50.70
2023-03-17T11:25:22.822Z,51.51
2023-03-17T11:26:22.837Z,51.82
2023-03-17T11:27:22.811Z,51.31
2023-03-17T11:28:22.797Z,51.21
2023-03-17T11:29:22.792Z,51.11
2023-03-17T11:30:22.780Z,52.33
2023-03-17T11:31:22.818Z,52.81
2023-03-17T11:32:22.765Z,52.63
2023-03-17T11:33:22.749Z,52.94
2023-03-17T11:34:22.745Z,53.45
2023-03-17T11:35:22.730Z,52.91
2023-03-17T11:36:22.730Z,52.84
2023-03-17T11:37:22.721Z,53.24
2023-03-17T11:38:22.727Z,53.22
2023-03-17T11:39:22.786Z,52.94
2023-03-17T11:40:22.679Z,53.04
2023-03-17T11:41:22.681Z,53.12
2023-03-17T11:42:22.657Z,53.32
2023-03-17T11:43:22.650Z,54.05
2023-03-17T11:44:22.632Z,52.53
2023-03-17T11:45:22.635Z,52.53
2023-03-17T11:46:22.708Z,53.17
2023-03-17T11:47:22.609Z,53.55
2023-03-17T11:48:22.595Z,54.57
2023-03-17T11:49:23.587Z,53.45
2023-03-17T11:50:22.606Z,54.05
2023-03-17T11:51:22.573Z,52.73
2023-03-17T11:52:22.552Z,53.14
2023-03-17T11:53:22.556Z,52.94
2023-03-17T11:54:22.530Z,53.02
2023-03-17T11:55:22.545Z,52.81
2023-03-17T11:56:22.516Z,52.20
2023-03-17T11:57:22.540Z,53.02
2023-03-17T11:58:22.496Z,53.63
2023-03-17T11:59:22.477Z,52.71
2023-03-17T12:00:22.480Z,53.02
2023-03-17T12:01:22.477Z,53.12
2023-03-17T12:02:22.449Z,54.64
2023-03-17T12:03:22.634Z,54.11
2023-03-17T12:04:22.521Z,53.39
2023-03-17T12:05:22.418Z,54.51
2023-03-17T12:06:22.421Z,54.39
2023-03-17T12:07:22.399Z,53.96
2023-03-17T12:08:22.381Z,54.18
2023-03-17T12:09:22.488Z,52.92
2023-03-17T12:10:22.366Z,52.81
2023-03-17T12:11:22.392Z,53.22
2023-03-17T12:12:22.355Z,52.71
2023-03-17T12:13:22.338Z,52.41
2023-03-17T12:14:22.419Z,52.61
2023-03-17T12:15:22.326Z,51.80
2023-03-17T12:16:22.339Z,52.51
2023-03-17T12:17:23.139Z,53.02
2023-03-17T12:18:22.273Z,52.41
2023-03-17T12:19:23.276Z,53.02
2023-03-17T12:20:22.315Z,53.55
2023-03-17T12:21:22.269Z,53.55
2023-03-17T12:22:22.246Z,53.25
2023-03-17T12:23:22.420Z,53.75
2023-03-17T12:24:22.223Z,53.14
2023-03-17T12:25:22.212Z,52.84
2023-03-17T12:26:22.210Z,53.47
2023-03-17T12:27:22.221Z,52.66
2023-03-17T12:28:22.186Z,54.16
2023-03-17T12:29:22.307Z,53.04
2023-03-17T12:30:22.151Z,52.86
2023-03-17T12:31:23.913Z,53.27
2023-03-17T12:32:22.240Z,52.56
2023-03-17T12:33:22.129Z,52.46
2023-03-17T12:34:22.255Z,53.67
2023-03-17T12:35:22.124Z,52.97
2023-03-17T12:36:22.213Z,52.58
2023-03-17T12:37:22.103Z,51.44
2023-03-17T12:38:22.081Z,50.53
2023-03-17T12:39:22.067Z,51.26
2023-03-17T12:40:22.908Z,52.76
2023-03-17T12:41:22.044Z,52.58
2023-03-17T12:42:22.048Z,52.28
2023-03-17T12:43:22.021Z,51.95
2023-03-17T12:44:22.013Z,51.34
2023-03-17T12:45:22.012Z,51.14
2023-03-17T12:46:21.996Z,51.24
2023-03-17T12:47:21.984Z,51.57
2023-03-17T12:48:21.976Z,52.38
2023-03-17T12:49:22.966Z,51.16
2023-03-17T12:50:21.940Z,50.65
2023-03-17T12:51:21.931Z,50.96
2023-03-17T12:52:21.954Z,50.25